<?xml version="1.0" encoding="UTF-8"?>
 <gpx
 xmlns="http://www.topografix.com/GPX/1/1"
 version="1.1"
 creator="Wikipedia"
 xmlns:xsi="http://www.w3.org/2001/XMLSchema-instance"
 xsi:schemaLocation="http://www.topografix.com/GPX/1/1 http://www.topografix.com/GPX/1/1/gpx.xsd">
	<time>2026-09-05T18:29:08Z</time>
	<metadata>
 		<name>gps</name>
 	</metadata>
	<trk>
		<name>exercise</name>
		<trkseg>
			<trkpt lat="54.9442121" lon="82.8806849">
				<time>2026-09-05T18:29:08Z</time>
				<ele>121.584</ele>
			</trkpt>
			<trkpt lat="54.9442121" lon="82.8806849">
				<time>2026-09-05T18:29:12Z</time>
				<ele>121.584</ele>
			</trkpt>
			<trkpt lat="54.9442121" lon="82.8806849">
				<time>2026-09-05T18:29:17Z</time>
				<ele>121.584</ele>
			</trkpt>
			<trkpt lat="54.9442121" lon="82.8806849">
				<time>2026-09-05T18:29:21Z</time>
				<ele>121.584</ele>
			</trkpt>
			<trkpt lat="54.9442121" lon="82.8806849">
				<time>2026-09-05T18:29:26Z</time>
				<ele>121.584</ele>
			</trkpt>
			<trkpt lat="54.9442121" lon="82.8806849">
				<time>2026-09-05T18:29:31Z</time>
				<ele>121.584</ele>
			</trkpt>
			<trkpt lat="54.9442121" lon="82.8806849">
				<time>2026-09-05T18:29:36Z</time>
				<ele>121.584</ele>
			</trkpt>
			<trkpt lat="54.9442121" lon="82.8806849">
				<time>2026-09-05T18:29:41Z</time>
				<ele>121.584</ele>
			</trkpt>
			<trkpt lat="54.9442121" lon="82.8806849">
				<time>2026-09-05T18:29:46Z</time>
				<ele>121.584</ele>
			</trkpt>
			<trkpt lat="54.9442121" lon="82.8806849">
				<time>2026-09-05T18:29:51Z</time>
				<ele>121.584</ele>
			</trkpt>
			<trkpt lat="54.9442121" lon="82.8806849">
				<time>2026-09-05T18:29:56Z</time>
				<ele>121.584</ele>
			</trkpt>
			<trkpt lat="54.9442121" lon="82.8806849">
				<time>2026-09-05T18:30:01Z</time>
				<ele>121.584</ele>
			</trkpt>
			<trkpt lat="54.9442121" lon="82.8806849">
				<time>2026-09-05T18:30:06Z</time>
				<ele>121.584</ele>
			</trkpt>
			<trkpt lat="54.944352328" lon="82.881402128">
				<time>2026-09-05T18:30:13Z</time>
				<ele>128.722</ele>
			</trkpt>
			<trkpt lat="54.944352328" lon="82.881402128">
				<time>2026-09-05T18:30:18Z</time>
				<ele>128.722</ele>
			</trkpt>
			<trkpt lat="54.944352328" lon="82.881402128">
				<time>2026-09-05T18:30:23Z</time>
				<ele>128.722</ele>
			</trkpt>
			<trkpt lat="54.944352328" lon="82.881402128">
				<time>2026-09-05T18:30:28Z</time>
				<ele>128.722</ele>
			</trkpt>
			<trkpt lat="54.944352328" lon="82.881402128">
				<time>2026-09-05T18:30:33Z</time>
				<ele>128.722</ele>
			</trkpt>
			<trkpt lat="54.944352328" lon="82.881402128">
				<time>2026-09-05T18:30:38Z</time>
				<ele>128.722</ele>
			</trkpt>
			<trkpt lat="54.944352328" lon="82.881402128">
				<time>2026-09-05T18:30:43Z</time>
				<ele>128.722</ele>
			</trkpt>
			<trkpt lat="54.944352328" lon="82.881402128">
				<time>2026-09-05T18:30:48Z</time>
				<ele>128.722</ele>
			</trkpt>
			<trkpt lat="54.944352328" lon="82.881402128">
				<time>2026-09-05T18:30:53Z</time>
				<ele>128.722</ele>
			</trkpt>
			<trkpt lat="54.944352328" lon="82.881402128">
				<time>2026-09-05T18:30:58Z</time>
				<ele>128.722</ele>
			</trkpt>
			<trkpt lat="54.944352328" lon="82.881402128">
				<time>2026-09-05T18:31:03Z</time>
				<ele>128.722</ele>
			</trkpt>
			<trkpt lat="54.944352328" lon="82.881402128">
				<time>2026-09-05T18:31:08Z</time>
				<ele>128.722</ele>
			</trkpt>
			<trkpt lat="54.944352328" lon="82.881402128">
				<time>2026-09-05T18:31:13Z</time>
				<ele>128.722</ele>
			</trkpt>
			<trkpt lat="54.943259259" lon="82.882661827">
				<time>2026-09-05T18:31:22Z</time>
				<ele>125.662</ele>
			</trkpt>
			<trkpt lat="54.943259259" lon="82.882661827">
				<time>2026-09-05T18:31:27Z</time>
				<ele>125.662</ele>
			</trkpt>
			<trkpt lat="54.943259259" lon="82.882661827">
				<time>2026-09-05T18:31:32Z</time>
				<ele>125.662</ele>
			</trkpt>
			<trkpt lat="54.943259259" lon="82.882661827">
				<time>2026-09-05T18:31:37Z</time>
				<ele>125.662</ele>
			</trkpt>
			<trkpt lat="54.943259259" lon="82.882661827">
				<time>2026-09-05T18:31:42Z</time>
				<ele>125.662</ele>
			</trkpt>
			<trkpt lat="54.943259259" lon="82.882661827">
				<time>2026-09-05T18:31:47Z</time>
				<ele>125.662</ele>
			</trkpt>
			<trkpt lat="54.943259259" lon="82.882661827">
				<time>2026-09-05T18:31:52Z</time>
				<ele>125.662</ele>
			</trkpt>
			<trkpt lat="54.943259259" lon="82.882661827">
				<time>2026-09-05T18:31:57Z</time>
				<ele>125.662</ele>
			</trkpt>
			<trkpt lat="54.943259259" lon="82.882661827">
				<time>2026-09-05T18:32:02Z</time>
				<ele>125.662</ele>
			</trkpt>
			<trkpt lat="54.943259259" lon="82.882661827">
				<time>2026-09-05T18:32:07Z</time>
				<ele>125.662</ele>
			</trkpt>
			<trkpt lat="54.943259259" lon="82.882661827">
				<time>2026-09-05T18:32:12Z</time>
				<ele>125.662</ele>
			</trkpt>
			<trkpt lat="54.943259259" lon="82.882661827">
				<time>2026-09-05T18:32:17Z</time>
				<ele>125.662</ele>
			</trkpt>
			<trkpt lat="54.943259259" lon="82.882661827">
				<time>2026-09-05T18:32:22Z</time>
				<ele>125.662</ele>
			</trkpt>
			<trkpt lat="54.942651315" lon="82.888616403">
				<time>2026-09-05T18:32:31Z</time>
				<ele>125.864</ele>
			</trkpt>
			<trkpt lat="54.942651315" lon="82.888616403">
				<time>2026-09-05T18:32:36Z</time>
				<ele>125.864</ele>
			</trkpt>
			<trkpt lat="54.942651315" lon="82.888616403">
				<time>2026-09-05T18:32:41Z</time>
				<ele>125.864</ele>
			</trkpt>
			<trkpt lat="54.942651315" lon="82.888616403">
				<time>2026-09-05T18:32:46Z</time>
				<ele>125.864</ele>
			</trkpt>
			<trkpt lat="54.942651315" lon="82.888616403">
				<time>2026-09-05T18:32:51Z</time>
				<ele>125.864</ele>
			</trkpt>
			<trkpt lat="54.942651315" lon="82.888616403">
				<time>2026-09-05T18:32:56Z</time>
				<ele>125.864</ele>
			</trkpt>
			<trkpt lat="54.942651315" lon="82.888616403">
				<time>2026-09-05T18:33:01Z</time>
				<ele>125.864</ele>
			</trkpt>
			<trkpt lat="54.942651315" lon="82.888616403">
				<time>2026-09-05T18:33:06Z</time>
				<ele>125.864</ele>
			</trkpt>
			<trkpt lat="54.942651315" lon="82.888616403">
				<time>2026-09-05T18:33:11Z</time>
				<ele>125.864</ele>
			</trkpt>
			<trkpt lat="54.942651315" lon="82.888616403">
				<time>2026-09-05T18:33:16Z</time>
				<ele>125.864</ele>
			</trkpt>
			<trkpt lat="54.942651315" lon="82.888616403">
				<time>2026-09-05T18:33:21Z</time>
				<ele>125.864</ele>
			</trkpt>
			<trkpt lat="54.942651315" lon="82.888616403">
				<time>2026-09-05T18:33:26Z</time>
				<ele>125.864</ele>
			</trkpt>
			<trkpt lat="54.942651315" lon="82.888616403">
				<time>2026-09-05T18:33:31Z</time>
				<ele>125.864</ele>
			</trkpt>
			<trkpt lat="54.941996512" lon="82.899241409">
				<time>2026-09-05T18:33:40Z</time>
				<ele>129.96</ele>
			</trkpt>
			<trkpt lat="54.941996512" lon="82.899241409">
				<time>2026-09-05T18:33:45Z</time>
				<ele>129.96</ele>
			</trkpt>
			<trkpt lat="54.941996512" lon="82.899241409">
				<time>2026-09-05T18:33:50Z</time>
				<ele>129.96</ele>
			</trkpt>
			<trkpt lat="54.941996512" lon="82.899241409">
				<time>2026-09-05T18:33:55Z</time>
				<ele>129.96</ele>
			</trkpt>
			<trkpt lat="54.941996512" lon="82.899241409">
				<time>2026-09-05T18:34:00Z</time>
				<ele>129.96</ele>
			</trkpt>
			<trkpt lat="54.941996512" lon="82.899241409">
				<time>2026-09-05T18:34:05Z</time>
				<ele>129.96</ele>
			</trkpt>
			<trkpt lat="54.941996512" lon="82.899241409">
				<time>2026-09-05T18:34:10Z</time>
				<ele>129.96</ele>
			</trkpt>
			<trkpt lat="54.941996512" lon="82.899241409">
				<time>2026-09-05T18:34:15Z</time>
				<ele>129.96</ele>
			</trkpt>
			<trkpt lat="54.941996512" lon="82.899241409">
				<time>2026-09-05T18:34:20Z</time>
				<ele>129.96</ele>
			</trkpt>
			<trkpt lat="54.941996512" lon="82.899241409">
				<time>2026-09-05T18:34:25Z</time>
				<ele>129.96</ele>
			</trkpt>
			<trkpt lat="54.941996512" lon="82.899241409">
				<time>2026-09-05T18:34:30Z</time>
				<ele>129.96</ele>
			</trkpt>
			<trkpt lat="54.941996512" lon="82.899241409">
				<time>2026-09-05T18:34:35Z</time>
				<ele>129.96</ele>
			</trkpt>
			<trkpt lat="54.941996512" lon="82.899241409">
				<time>2026-09-05T18:34:40Z</time>
				<ele>129.96</ele>
			</trkpt>
			<trkpt lat="54.941591102" lon="82.905758316">
				<time>2026-09-05T18:34:47Z</time>
				<ele>129.234</ele>
			</trkpt>
			<trkpt lat="54.941591102" lon="82.905758316">
				<time>2026-09-05T18:34:52Z</time>
				<ele>129.234</ele>
			</trkpt>
			<trkpt lat="54.941591102" lon="82.905758316">
				<time>2026-09-05T18:34:57Z</time>
				<ele>129.234</ele>
			</trkpt>
			<trkpt lat="54.941591102" lon="82.905758316">
				<time>2026-09-05T18:35:02Z</time>
				<ele>129.234</ele>
			</trkpt>
			<trkpt lat="54.941591102" lon="82.905758316">
				<time>2026-09-05T18:35:07Z</time>
				<ele>129.234</ele>
			</trkpt>
			<trkpt lat="54.941591102" lon="82.905758316">
				<time>2026-09-05T18:35:12Z</time>
				<ele>129.234</ele>
			</trkpt>
			<trkpt lat="54.941591102" lon="82.905758316">
				<time>2026-09-05T18:35:17Z</time>
				<ele>129.234</ele>
			</trkpt>
			<trkpt lat="54.941591102" lon="82.905758316">
				<time>2026-09-05T18:35:22Z</time>
				<ele>129.234</ele>
			</trkpt>
			<trkpt lat="54.941591102" lon="82.905758316">
				<time>2026-09-05T18:35:27Z</time>
				<ele>129.234</ele>
			</trkpt>
			<trkpt lat="54.941591102" lon="82.905758316">
				<time>2026-09-05T18:35:32Z</time>
				<ele>129.234</ele>
			</trkpt>
			<trkpt lat="54.941591102" lon="82.905758316">
				<time>2026-09-05T18:35:37Z</time>
				<ele>129.234</ele>
			</trkpt>
			<trkpt lat="54.941591102" lon="82.905758316">
				<time>2026-09-05T18:35:42Z</time>
				<ele>129.234</ele>
			</trkpt>
			<trkpt lat="54.941591102" lon="82.905758316">
				<time>2026-09-05T18:35:47Z</time>
				<ele>129.234</ele>
			</trkpt>
			<trkpt lat="54.940742707" lon="82.919875193">
				<time>2026-09-05T18:35:54Z</time>
				<ele>129.105</ele>
			</trkpt>
			<trkpt lat="54.940742707" lon="82.919875193">
				<time>2026-09-05T18:35:59Z</time>
				<ele>129.105</ele>
			</trkpt>
			<trkpt lat="54.940742707" lon="82.919875193">
				<time>2026-09-05T18:36:04Z</time>
				<ele>129.105</ele>
			</trkpt>
			<trkpt lat="54.940742707" lon="82.919875193">
				<time>2026-09-05T18:36:09Z</time>
				<ele>129.105</ele>
			</trkpt>
			<trkpt lat="54.940742707" lon="82.919875193">
				<time>2026-09-05T18:36:14Z</time>
				<ele>129.105</ele>
			</trkpt>
			<trkpt lat="54.940742707" lon="82.919875193">
				<time>2026-09-05T18:36:19Z</time>
				<ele>129.105</ele>
			</trkpt>
			<trkpt lat="54.940742707" lon="82.919875193">
				<time>2026-09-05T18:36:24Z</time>
				<ele>129.105</ele>
			</trkpt>
			<trkpt lat="54.940742707" lon="82.919875193">
				<time>2026-09-05T18:36:29Z</time>
				<ele>129.105</ele>
			</trkpt>
			<trkpt lat="54.940742707" lon="82.919875193">
				<time>2026-09-05T18:36:34Z</time>
				<ele>129.105</ele>
			</trkpt>
			<trkpt lat="54.940742707" lon="82.919875193">
				<time>2026-09-05T18:36:39Z</time>
				<ele>129.105</ele>
			</trkpt>
			<trkpt lat="54.940742707" lon="82.919875193">
				<time>2026-09-05T18:36:44Z</time>
				<ele>129.105</ele>
			</trkpt>
			<trkpt lat="54.940742707" lon="82.919875193">
				<time>2026-09-05T18:36:49Z</time>
				<ele>129.105</ele>
			</trkpt>
			<trkpt lat="54.940742707" lon="82.919875193">
				<time>2026-09-05T18:36:54Z</time>
				<ele>129.105</ele>
			</trkpt>
			<trkpt lat="54.940004849" lon="82.931899043">
				<time>2026-09-05T18:37:03Z</time>
				<ele>123.322</ele>
			</trkpt>
			<trkpt lat="54.940004849" lon="82.931899043">
				<time>2026-09-05T18:37:08Z</time>
				<ele>123.322</ele>
			</trkpt>
			<trkpt lat="54.940004849" lon="82.931899043">
				<time>2026-09-05T18:37:13Z</time>
				<ele>123.322</ele>
			</trkpt>
			<trkpt lat="54.940004849" lon="82.931899043">
				<time>2026-09-05T18:37:18Z</time>
				<ele>123.322</ele>
			</trkpt>
			<trkpt lat="54.940004849" lon="82.931899043">
				<time>2026-09-05T18:37:23Z</time>
				<ele>123.322</ele>
			</trkpt>
			<trkpt lat="54.940004849" lon="82.931899043">
				<time>2026-09-05T18:37:28Z</time>
				<ele>123.322</ele>
			</trkpt>
			<trkpt lat="54.940004849" lon="82.931899043">
				<time>2026-09-05T18:37:33Z</time>
				<ele>123.322</ele>
			</trkpt>
			<trkpt lat="54.940004849" lon="82.931899043">
				<time>2026-09-05T18:37:38Z</time>
				<ele>123.322</ele>
			</trkpt>
			<trkpt lat="54.940004849" lon="82.931899043">
				<time>2026-09-05T18:37:43Z</time>
				<ele>123.322</ele>
			</trkpt>
			<trkpt lat="54.940004849" lon="82.931899043">
				<time>2026-09-05T18:37:48Z</time>
				<ele>123.322</ele>
			</trkpt>
			<trkpt lat="54.940004849" lon="82.931899043">
				<time>2026-09-05T18:37:53Z</time>
				<ele>123.322</ele>
			</trkpt>
			<trkpt lat="54.940004849" lon="82.931899043">
				<time>2026-09-05T18:37:58Z</time>
				<ele>123.322</ele>
			</trkpt>
			<trkpt lat="54.940004849" lon="82.931899043">
				<time>2026-09-05T18:38:03Z</time>
				<ele>123.322</ele>
			</trkpt>
			<trkpt lat="54.93330379" lon="82.937245897">
				<time>2026-09-05T18:38:12Z</time>
				<ele>137.096</ele>
			</trkpt>
			<trkpt lat="54.93330379" lon="82.937245897">
				<time>2026-09-05T18:38:17Z</time>
				<ele>137.096</ele>
			</trkpt>
			<trkpt lat="54.93330379" lon="82.937245897">
				<time>2026-09-05T18:38:22Z</time>
				<ele>137.096</ele>
			</trkpt>
			<trkpt lat="54.93330379" lon="82.937245897">
				<time>2026-09-05T18:38:27Z</time>
				<ele>137.096</ele>
			</trkpt>
			<trkpt lat="54.93330379" lon="82.937245897">
				<time>2026-09-05T18:38:32Z</time>
				<ele>137.096</ele>
			</trkpt>
			<trkpt lat="54.93330379" lon="82.937245897">
				<time>2026-09-05T18:38:37Z</time>
				<ele>137.096</ele>
			</trkpt>
			<trkpt lat="54.93330379" lon="82.937245897">
				<time>2026-09-05T18:38:42Z</time>
				<ele>137.096</ele>
			</trkpt>
			<trkpt lat="54.93330379" lon="82.937245897">
				<time>2026-09-05T18:38:47Z</time>
				<ele>137.096</ele>
			</trkpt>
			<trkpt lat="54.93330379" lon="82.937245897">
				<time>2026-09-05T18:38:52Z</time>
				<ele>137.096</ele>
			</trkpt>
			<trkpt lat="54.93330379" lon="82.937245897">
				<time>2026-09-05T18:38:57Z</time>
				<ele>137.096</ele>
			</trkpt>
			<trkpt lat="54.93330379" lon="82.937245897">
				<time>2026-09-05T18:39:02Z</time>
				<ele>137.096</ele>
			</trkpt>
			<trkpt lat="54.93330379" lon="82.937245897">
				<time>2026-09-05T18:39:07Z</time>
				<ele>137.096</ele>
			</trkpt>
			<trkpt lat="54.93330379" lon="82.937245897">
				<time>2026-09-05T18:39:12Z</time>
				<ele>137.096</ele>
			</trkpt>
			<trkpt lat="54.924918172" lon="82.949576415">
				<time>2026-09-05T18:39:21Z</time>
				<ele>127.823</ele>
			</trkpt>
			<trkpt lat="54.924918172" lon="82.949576415">
				<time>2026-09-05T18:39:26Z</time>
				<ele>127.823</ele>
			</trkpt>
			<trkpt lat="54.924918172" lon="82.949576415">
				<time>2026-09-05T18:39:31Z</time>
				<ele>127.823</ele>
			</trkpt>
			<trkpt lat="54.924918172" lon="82.949576415">
				<time>2026-09-05T18:39:36Z</time>
				<ele>127.823</ele>
			</trkpt>
			<trkpt lat="54.924918172" lon="82.949576415">
				<time>2026-09-05T18:39:41Z</time>
				<ele>127.823</ele>
			</trkpt>
			<trkpt lat="54.924918172" lon="82.949576415">
				<time>2026-09-05T18:39:46Z</time>
				<ele>127.823</ele>
			</trkpt>
			<trkpt lat="54.924918172" lon="82.949576415">
				<time>2026-09-05T18:39:51Z</time>
				<ele>127.823</ele>
			</trkpt>
			<trkpt lat="54.924918172" lon="82.949576415">
				<time>2026-09-05T18:39:56Z</time>
				<ele>127.823</ele>
			</trkpt>
			<trkpt lat="54.924918172" lon="82.949576415">
				<time>2026-09-05T18:40:01Z</time>
				<ele>127.823</ele>
			</trkpt>
			<trkpt lat="54.924918172" lon="82.949576415">
				<time>2026-09-05T18:40:06Z</time>
				<ele>127.823</ele>
			</trkpt>
			<trkpt lat="54.924918172" lon="82.949576415">
				<time>2026-09-05T18:40:11Z</time>
				<ele>127.823</ele>
			</trkpt>
			<trkpt lat="54.924918172" lon="82.949576415">
				<time>2026-09-05T18:40:16Z</time>
				<ele>127.823</ele>
			</trkpt>
			<trkpt lat="54.924918172" lon="82.949576415">
				<time>2026-09-05T18:40:21Z</time>
				<ele>127.823</ele>
			</trkpt>
			<trkpt lat="54.922105486" lon="82.953147687">
				<time>2026-09-05T18:40:28Z</time>
				<ele>127.155</ele>
			</trkpt>
			<trkpt lat="54.922105486" lon="82.953147687">
				<time>2026-09-05T18:40:33Z</time>
				<ele>127.155</ele>
			</trkpt>
			<trkpt lat="54.922105486" lon="82.953147687">
				<time>2026-09-05T18:40:38Z</time>
				<ele>127.155</ele>
			</trkpt>
			<trkpt lat="54.922105486" lon="82.953147687">
				<time>2026-09-05T18:40:43Z</time>
				<ele>127.155</ele>
			</trkpt>
			<trkpt lat="54.922105486" lon="82.953147687">
				<time>2026-09-05T18:40:48Z</time>
				<ele>127.155</ele>
			</trkpt>
			<trkpt lat="54.922105486" lon="82.953147687">
				<time>2026-09-05T18:40:53Z</time>
				<ele>127.155</ele>
			</trkpt>
			<trkpt lat="54.922105486" lon="82.953147687">
				<time>2026-09-05T18:40:58Z</time>
				<ele>127.155</ele>
			</trkpt>
		</trkseg>
	</trk>
</gpx>
